createdAt,value
2023-03-16T00:00:28.279Z,80.08
2023-03-16T00:02:31.936Z,80.30
2023-03-16T00:04:37.669Z,80.19
2023-03-16T00:06:41.319Z,80.25
2023-03-16T00:08:44.823Z,80.33
2023-03-16T00:10:48.671Z,80.33
2023-03-16T00:12:53.981Z,80.38
2023-03-16T00:14:57.481Z,80.29
2023-03-16T00:17:02.316Z,80.48
2023-03-16T00:19:05.914Z,80.53
2023-03-16T00:21:09.171Z,80.44
2023-03-16T00:23:12.406Z,80.57
2023-03-16T00:25:17.179Z,80.55
2023-03-16T00:27:22.833Z,80.57
2023-03-16T00:29:27.038Z,80.44
2023-03-16T00:31:30.366Z,80.61
2023-03-16T00:33:35.087Z,80.54
2023-03-16T00:35:38.435Z,80.74
2023-03-16T00:37:43.637Z,80.66
2023-03-16T00:39:48.196Z,80.76
2023-03-16T00:41:51.402Z,80.96
2023-03-16T00:43:54.635Z,80.82
2023-03-16T00:46:06.827Z,81.09
2023-03-16T00:48:10.366Z,81.09
2023-03-16T00:50:14.997Z,81.03
2023-03-16T00:52:18.258Z,81.08
2023-03-16T00:54:22.253Z,81.13
2023-03-16T00:56:25.541Z,81.16
2023-03-16T00:58:28.768Z,81.28
2023-03-16T01:00:32.467Z,81.36
2023-03-16T01:02:37.074Z,81.27
2023-03-16T01:04:41.367Z,81.39
2023-03-16T01:06:46.139Z,81.33
2023-03-16T01:08:49.912Z,81.58
2023-03-16T01:10:53.133Z,81.61
2023-03-16T01:12:56.365Z,81.62
2023-03-16T01:15:00.254Z,81.77
2023-03-16T01:17:04.018Z,81.70
2023-03-16T01:19:07.285Z,81.69
2023-03-16T01:21:13.798Z,81.81
2023-03-16T01:23:18.617Z,81.68
2023-03-16T01:25:24.274Z,81.88
2023-03-16T01:27:27.641Z,81.87
2023-03-16T01:29:31.226Z,81.92
2023-03-16T01:31:35.575Z,82.00
2023-03-16T01:33:39.503Z,81.89
2023-03-16T01:35:53.650Z,82.08
2023-03-16T01:37:57.587Z,82.07
2023-03-16T01:40:06.398Z,82.15
2023-03-16T01:42:10.301Z,82.11
2023-03-16T01:44:14.626Z,82.44
2023-03-16T01:46:21.513Z,82.28
2023-03-16T01:48:27.476Z,82.39
2023-03-16T01:50:31.658Z,82.31
2023-03-16T01:52:38.291Z,82.44
2023-03-16T01:54:44.014Z,82.42
2023-03-16T01:56:55.581Z,82.44
2023-03-16T01:59:01.870Z,82.55
2023-03-16T02:01:06.137Z,82.60
2023-03-16T02:03:15.130Z,82.58
2023-03-16T02:05:44.196Z,82.64
2023-03-16T02:07:58.618Z,82.74
2023-03-16T02:10:04.940Z,82.90
2023-03-16T02:12:17.971Z,82.82
2023-03-16T02:14:24.955Z,82.79
2023-03-16T02:16:28.244Z,82.98
2023-03-16T02:18:31.691Z,82.98
2023-03-16T02:20:43.671Z,82.91
2023-03-16T02:22:50.142Z,82.99
2023-03-16T02:24:53.788Z,83.06
2023-03-16T02:27:00.679Z,83.03
2023-03-16T02:29:20.242Z,83.05
2023-03-16T02:31:26.015Z,83.21
2023-03-16T02:33:33.653Z,83.10
2023-03-16T02:35:36.971Z,83.14
2023-03-16T02:37:40.361Z,83.37
2023-03-16T02:39:44.134Z,83.38
2023-03-16T02:41:50.105Z,83.43
2023-03-16T02:43:58.211Z,83.45
2023-03-16T02:46:08.219Z,83.42
2023-03-16T02:48:22.371Z,83.47
2023-03-16T02:50:25.997Z,83.61
2023-03-16T02:52:29.403Z,83.54
2023-03-16T02:54:32.623Z,83.44
2023-03-16T02:56:35.921Z,83.56
2023-03-16T02:58:39.172Z,83.67
2023-03-16T03:00:47.726Z,83.61
2023-03-16T03:02:53.628Z,83.69
2023-03-16T03:04:58.299Z,83.72
2023-03-16T03:07:04.996Z,83.68
2023-03-16T03:09:22.010Z,83.73
2023-03-16T03:11:29.887Z,83.77
2023-03-16T03:13:33.232Z,83.86
2023-03-16T03:15:36.806Z,83.92
2023-03-16T03:17:44.282Z,84.08
2023-03-16T03:19:47.702Z,84.00
2023-03-16T03:21:56.768Z,84.10
2023-03-16T03:24:00.054Z,84.23
2023-03-16T03:26:04.315Z,84.20
2023-03-16T03:28:09.195Z,84.23
2023-03-16T03:30:15.793Z,84.35
2023-03-16T03:32:19.170Z,84.44
2023-03-16T03:34:24.014Z,84.37
2023-03-16T03:36:27.790Z,84.36
2023-03-16T03:38:32.416Z,84.45
2023-03-16T03:40:36.066Z,84.43
2023-03-16T03:42:41.054Z,84.56
2023-03-16T03:44:44.274Z,84.54
2023-03-16T03:46:47.751Z,84.46
2023-03-16T03:48:51.070Z,84.39
2023-03-16T03:50:54.847Z,84.50
2023-03-16T03:53:34.772Z,84.55
2023-03-16T03:56:07.682Z,84.46
2023-03-16T03:58:12.163Z,84.27
2023-03-16T04:00:20.484Z,84.37
2023-03-16T04:02:23.776Z,84.19
2023-03-16T04:04:30.497Z,84.16
2023-03-16T04:06:33.769Z,84.04
2023-03-16T04:08:38.716Z,83.95
2023-03-16T04:10:45.854Z,83.90
2023-03-16T04:12:49.151Z,83.67
2023-03-16T04:14:52.797Z,83.58
2023-03-16T04:16:57.832Z,83.38
2023-03-16T04:19:01.742Z,83.47
2023-03-16T04:21:06.379Z,83.30
2023-03-16T04:23:09.587Z,83.37
2023-03-16T04:25:18.970Z,83.32
2023-03-16T04:27:23.875Z,83.27
2023-03-16T04:29:27.104Z,83.22
2023-03-16T04:31:33.592Z,83.03
2023-03-16T04:33:37.721Z,83.06
2023-03-16T04:35:41.449Z,83.04
2023-03-16T04:37:44.753Z,83.11
2023-03-16T04:39:47.939Z,82.81
2023-03-16T04:41:52.610Z,82.76
2023-03-16T04:43:59.160Z,82.97
2023-03-16T04:46:02.830Z,82.76
2023-03-16T04:48:07.762Z,82.74
2023-03-16T04:50:12.654Z,82.83
2023-03-16T04:52:17.493Z,82.60
2023-03-16T04:54:21.072Z,82.62
2023-03-16T04:56:25.001Z,82.55
2023-03-16T04:58:35.025Z,82.51
2023-03-16T05:00:39.240Z,82.33
2023-03-16T05:02:48.552Z,82.36
2023-03-16T05:04:51.961Z,82.25
2023-03-16T05:06:56.183Z,82.30
2023-03-16T05:09:08.485Z,82.21
2023-03-16T05:11:13.929Z,82.11
2023-03-16T05:13:25.539Z,81.93
2023-03-16T05:15:31.486Z,81.86
2023-03-16T05:17:46.923Z,81.69
2023-03-16T05:19:51.026Z,81.45
2023-03-16T05:21:56.930Z,81.45
2023-03-16T05:24:00.553Z,81.45
2023-03-16T05:26:03.894Z,81.27
2023-03-16T05:28:09.601Z,81.30
2023-03-16T05:30:24.761Z,81.11
2023-03-16T05:32:31.319Z,80.81
2023-03-16T05:34:34.753Z,80.44
2023-03-16T05:36:38.085Z,80.28
2023-03-16T05:38:47.568Z,80.00
2023-03-16T05:41:03.868Z,79.73
2023-03-16T05:43:31.324Z,79.41
2023-03-16T05:45:35.746Z,79.25
2023-03-16T05:47:50.537Z,79.22
2023-03-16T05:49:54.088Z,79.05
2023-03-16T05:52:09.205Z,78.78
2023-03-16T05:54:12.451Z,78.48
2023-03-16T05:56:20.875Z,78.35
2023-03-16T05:58:24.662Z,78.31
2023-03-16T06:00:30.152Z,77.82
2023-03-16T06:02:44.891Z,77.61
2023-03-16T06:04:49.636Z,77.43
2023-03-16T06:06:53.036Z,77.51
2023-03-16T06:08:58.896Z,77.15
2023-03-16T06:11:04.221Z,76.97
2023-03-16T06:13:07.528Z,76.91
2023-03-16T06:15:11.808Z,76.74
2023-03-16T06:17:15.109Z,76.56
2023-03-16T06:19:19.336Z,76.43
2023-03-16T06:21:28.829Z,76.32
2023-03-16T06:23:37.732Z,76.24
2023-03-16T06:25:43.119Z,75.94
2023-03-16T06:27:49.150Z,75.93
2023-03-16T06:29:54.040Z,75.82
2023-03-16T06:31:57.486Z,75.72
2023-03-16T06:34:01.165Z,75.71
2023-03-16T06:36:05.664Z,75.68
2023-03-16T06:38:23.824Z,75.47
2023-03-16T06:40:33.189Z,75.33
2023-03-16T06:42:36.450Z,75.35
2023-03-16T06:44:39.760Z,75.26
2023-03-16T06:46:46.107Z,75.17
2023-03-16T06:48:49.316Z,75.21
2023-03-16T06:50:52.844Z,75.26
2023-03-16T06:52:59.998Z,75.32
2023-03-16T06:55:10.315Z,75.55
2023-03-16T06:57:15.669Z,75.21
2023-03-16T06:59:19.512Z,75.18
2023-03-16T07:01:23.041Z,75.11
2023-03-16T07:03:26.342Z,75.00
2023-03-16T07:05:35.017Z,75.03
2023-03-16T07:07:39.322Z,74.97
2023-03-16T07:09:42.570Z,74.91
2023-03-16T07:11:47.362Z,74.96
2023-03-16T07:13:51.816Z,74.97
2023-03-16T07:16:00.522Z,74.65
2023-03-16T07:18:03.919Z,74.65
2023-03-16T07:20:10.671Z,74.46
2023-03-16T07:22:15.063Z,74.10
2023-03-16T07:24:18.435Z,73.91
2023-03-16T07:26:22.012Z,73.58
2023-03-16T07:28:32.270Z,73.00
2023-03-16T07:30:37.298Z,72.69
2023-03-16T07:32:41.654Z,72.29
2023-03-16T07:34:46.237Z,71.77
2023-03-16T07:36:52.682Z,71.28
2023-03-16T07:38:57.042Z,70.88
2023-03-16T07:41:00.440Z,70.60
2023-03-16T07:43:04.583Z,70.30
2023-03-16T07:45:18.329Z,70.05
2023-03-16T07:47:25.924Z,69.60
2023-03-16T07:49:31.974Z,69.35
2023-03-16T07:51:36.862Z,69.17
2023-03-16T07:53:40.313Z,69.33
2023-03-16T07:55:54.705Z,69.08
2023-03-16T07:57:58.119Z,68.86
2023-03-16T08:00:08.509Z,68.89
2023-03-16T08:02:21.651Z,68.42
2023-03-16T08:04:25.974Z,68.48
2023-03-16T08:06:30.349Z,68.20
2023-03-16T08:08:33.911Z,67.95
2023-03-16T08:10:37.377Z,67.97
2023-03-16T08:12:47.323Z,67.30
2023-03-16T08:14:50.894Z,66.92
2023-03-16T08:16:59.229Z,66.42
2023-03-16T08:19:05.068Z,66.22
2023-03-16T08:21:08.581Z,66.00
2023-03-16T08:23:15.563Z,65.71
2023-03-16T08:25:19.914Z,65.65
2023-03-16T08:27:35.842Z,65.43
2023-03-16T08:29:42.052Z,64.86
2023-03-16T08:31:49.560Z,64.69
2023-03-16T08:34:04.237Z,64.03
2023-03-16T08:36:11.763Z,63.70
2023-03-16T08:38:16.988Z,63.68
2023-03-16T08:40:22.622Z,63.28
2023-03-16T08:42:26.320Z,62.89
2023-03-16T08:44:37.041Z,62.78
2023-03-16T08:46:40.766Z,63.01
2023-03-16T08:48:44.492Z,62.83
2023-03-16T08:50:49.226Z,62.76
2023-03-16T08:52:52.507Z,62.66
2023-03-16T08:55:03.767Z,62.73
2023-03-16T08:57:07.340Z,62.54
2023-03-16T08:59:27.037Z,62.25
2023-03-16T09:01:32.771Z,61.83
2023-03-16T09:03:36.916Z,61.52
2023-03-16T09:05:40.504Z,61.66
2023-03-16T09:07:47.128Z,61.46
2023-03-16T09:09:52.735Z,61.53
2023-03-16T09:11:55.984Z,61.18
2023-03-16T09:13:59.432Z,60.80
2023-03-16T09:16:03.217Z,60.07
2023-03-16T09:18:06.818Z,59.97
2023-03-16T09:20:22.410Z,59.61
2023-03-16T09:22:29.046Z,59.10
2023-03-16T09:24:33.773Z,59.13
2023-03-16T09:26:37.809Z,59.25
2023-03-16T09:28:42.477Z,59.00
2023-03-16T09:30:45.717Z,58.86
2023-03-16T09:32:49.307Z,58.39
2023-03-16T09:34:52.567Z,58.23
2023-03-16T09:36:56.527Z,58.18
2023-03-16T09:38:59.793Z,57.99
2023-03-16T09:41:09.587Z,57.27
2023-03-16T09:43:25.972Z,56.64
2023-03-16T09:45:37.008Z,56.08
2023-03-16T09:47:43.572Z,55.81
2023-03-16T09:49:48.967Z,55.05
2023-03-16T09:52:01.183Z,54.38
2023-03-16T09:54:08.080Z,54.44
2023-03-16T09:56:19.330Z,53.44
2023-03-16T09:58:23.685Z,52.41
2023-03-16T10:00:30.834Z,52.14
2023-03-16T10:02:57.369Z,51.59
2023-03-16T10:05:09.584Z,51.23
2023-03-16T10:07:27.736Z,50.74
2023-03-16T10:09:37.124Z,50.14
2023-03-16T10:11:46.129Z,50.17
2023-03-16T10:13:54.626Z,49.69
2023-03-16T10:16:00.335Z,49.02
2023-03-16T10:18:13.419Z,47.91
2023-03-16T10:20:18.827Z,47.39
2023-03-16T10:22:26.650Z,46.80
2023-03-16T10:24:43.244Z,46.93
2023-03-16T10:26:54.480Z,46.95
2023-03-16T10:28:57.728Z,46.92
2023-03-16T10:31:03.580Z,46.67
2023-03-16T10:33:19.783Z,46.63
2023-03-16T10:35:36.118Z,46.08
2023-03-16T10:37:40.612Z,45.53
2023-03-16T10:39:44.062Z,45.02
2023-03-16T10:41:57.062Z,44.03
2023-03-16T10:44:07.470Z,43.52
2023-03-16T10:46:14.782Z,43.24
2023-03-16T10:48:21.073Z,42.45
2023-03-16T10:50:27.811Z,42.32
2023-03-16T10:52:42.624Z,41.86
2023-03-16T10:54:51.252Z,41.71
2023-03-16T10:56:56.733Z,41.28
2023-03-16T10:59:00.385Z,40.41
2023-03-16T11:01:03.765Z,40.45
2023-03-16T11:03:22.906Z,40.49
2023-03-16T11:05:32.199Z,40.08
2023-03-16T11:07:37.624Z,39.51
2023-03-16T11:09:41.073Z,38.81
2023-03-16T11:11:49.466Z,38.10
2023-03-16T11:13:59.405Z,37.73
2023-03-16T11:16:07.073Z,37.43
2023-03-16T11:18:31.229Z,37.20
2023-03-16T11:20:36.349Z,36.98
2023-03-16T11:22:40.783Z,36.39
2023-03-16T11:24:50.544Z,35.86
2023-03-16T11:26:57.182Z,35.70
2023-03-16T11:29:09.809Z,35.66
2023-03-16T11:31:24.479Z,34.73
2023-03-16T11:33:31.137Z,35.06
2023-03-16T11:35:56.369Z,34.56
2023-03-16T11:38:12.268Z,35.02
2023-03-16T11:40:29.141Z,35.23
2023-03-16T11:42:38.929Z,34.04
2023-03-16T11:44:50.436Z,33.68
2023-03-16T11:47:03.004Z,33.16
2023-03-16T11:49:29.167Z,33.44
2023-03-16T11:51:42.455Z,32.93
2023-03-16T11:53:58.052Z,32.63
2023-03-16T11:56:12.945Z,32.39
2023-03-16T11:58:30.175Z,32.52
2023-03-16T12:00:48.609Z,32.20
2023-03-16T12:03:05.073Z,32.52
2023-03-16T12:05:24.463Z,31.72
2023-03-16T12:07:43.155Z,30.89
2023-03-16T12:10:13.930Z,31.55
2023-03-16T12:12:29.596Z,31.56
2023-03-16T12:14:39.737Z,30.83
2023-03-16T12:16:50.319Z,30.37
2023-03-16T12:19:00.154Z,29.96
2023-03-16T12:21:07.241Z,30.03
2023-03-16T12:23:15.319Z,30.19
2023-03-16T12:25:22.244Z,30.37
2023-03-16T12:27:31.536Z,30.21
2023-03-16T12:29:43.844Z,30.53
2023-03-16T12:31:59.252Z,29.97
2023-03-16T12:34:14.900Z,29.81
2023-03-16T12:36:51.029Z,30.42
2023-03-16T12:39:00.902Z,30.20
2023-03-16T12:41:18.063Z,30.57
2023-03-16T12:43:38.787Z,30.16
2023-03-16T12:45:48.696Z,30.22
2023-03-16T12:48:06.114Z,30.43
2023-03-16T12:50:17.803Z,30.12
2023-03-16T12:52:21.478Z,29.82
2023-03-16T12:54:26.364Z,29.12
2023-03-16T12:56:32.092Z,29.31
2023-03-16T12:58:35.975Z,29.04
2023-03-16T13:00:41.278Z,28.82
2023-03-16T13:02:50.948Z,28.89
2023-03-16T13:05:00.737Z,29.08
2023-03-16T13:07:07.754Z,29.06
2023-03-16T13:09:13.680Z,28.45
2023-03-16T13:11:17.690Z,28.66
2023-03-16T13:13:25.576Z,29.13
2023-03-16T13:15:31.651Z,29.21
2023-03-16T13:17:39.186Z,29.79
2023-03-16T13:19:45.114Z,29.53
2023-03-16T13:21:49.761Z,28.84
2023-03-16T13:23:59.648Z,28.76
2023-03-16T13:26:07.384Z,28.73
2023-03-16T13:28:14.606Z,29.46
2023-03-16T13:30:21.498Z,29.13
2023-03-16T13:32:28.670Z,28.87
2023-03-16T13:34:34.607Z,28.84
2023-03-16T13:36:38.104Z,28.99
2023-03-16T13:38:43.482Z,28.47
2023-03-16T13:40:48.395Z,28.07
2023-03-16T13:42:55.425Z,28.28
2023-03-16T13:44:59.652Z,28.14
2023-03-16T13:47:07.525Z,28.49
2023-03-16T13:49:16.403Z,28.60
2023-03-16T13:51:22.746Z,28.66
2023-03-16T13:53:29.682Z,28.68
2023-03-16T13:55:36.812Z,28.83
2023-03-16T13:57:43.026Z,29.28
2023-03-16T13:59:47.244Z,29.10
2023-03-16T14:01:58.106Z,29.53
2023-03-16T14:04:08.622Z,29.87
2023-03-16T14:06:23.734Z,29.83
2023-03-16T14:08:28.020Z,29.68
2023-03-16T14:10:38.902Z,29.67
2023-03-16T14:12:51.909Z,29.35
2023-03-16T14:14:56.920Z,29.69
2023-03-16T14:17:12.706Z,29.58
2023-03-16T14:19:20.399Z,29.91
2023-03-16T14:21:26.059Z,30.06
2023-03-16T14:23:35.812Z,30.54
2023-03-16T14:25:41.847Z,30.63
2023-03-16T14:27:47.572Z,30.94
2023-03-16T14:29:57.892Z,31.10
2023-03-16T14:32:01.707Z,31.17
2023-03-16T14:34:08.794Z,31.29
2023-03-16T14:36:15.399Z,31.36
2023-03-16T14:38:23.970Z,31.50
2023-03-16T14:40:37.792Z,31.20
2023-03-16T14:42:51.188Z,31.50
2023-03-16T14:45:01.423Z,31.45
2023-03-16T14:47:13.277Z,31.39
2023-03-16T14:49:23.181Z,31.32
2023-03-16T14:51:26.841Z,31.56
2023-03-16T14:53:30.712Z,31.48
2023-03-16T14:55:34.012Z,31.71
2023-03-16T14:57:37.314Z,31.63
2023-03-16T14:59:43.363Z,31.79
2023-03-16T15:01:47.788Z,31.76
2023-03-16T15:03:52.247Z,31.75
2023-03-16T15:05:55.994Z,31.84
2023-03-16T15:07:59.494Z,31.79
2023-03-16T15:10:09.969Z,31.82
2023-03-16T15:12:16.183Z,31.76
2023-03-16T15:14:39.420Z,31.78
2023-03-16T15:16:44.118Z,32.09
2023-03-16T15:18:47.857Z,32.27
2023-03-16T15:20:53.739Z,32.24
2023-03-16T15:22:58.754Z,32.21
2023-03-16T15:25:09.748Z,32.29
2023-03-16T15:27:21.208Z,32.24
2023-03-16T15:29:24.538Z,32.26
2023-03-16T15:31:27.866Z,32.09
2023-03-16T15:33:32.853Z,32.20
2023-03-16T15:35:37.103Z,31.92
2023-03-16T15:37:40.845Z,32.19
2023-03-16T15:39:44.680Z,32.02
2023-03-16T15:41:48.276Z,31.93
2023-03-16T15:43:52.761Z,31.92
2023-03-16T15:45:57.454Z,32.04
2023-03-16T15:48:00.782Z,32.31
2023-03-16T15:50:06.116Z,32.55
2023-03-16T15:52:23.661Z,32.31
2023-03-16T15:54:26.972Z,32.22
2023-03-16T15:56:47.219Z,32.13
2023-03-16T15:58:57.774Z,32.28
2023-03-16T16:01:02.859Z,32.25
2023-03-16T16:03:07.988Z,32.57
2023-03-16T16:05:12.726Z,32.68
2023-03-16T16:07:16.480Z,32.52
2023-03-16T16:09:19.828Z,32.55
2023-03-16T16:11:26.376Z,32.62
2023-03-16T16:13:43.778Z,32.84
2023-03-16T16:15:49.008Z,32.55
2023-03-16T16:18:16.361Z,32.40
2023-03-16T16:20:24.118Z,32.40
2023-03-16T16:22:28.416Z,32.63
2023-03-16T16:24:31.738Z,32.67
2023-03-16T16:26:50.104Z,32.78
2023-03-16T16:28:58.489Z,33.08
2023-03-16T16:31:02.586Z,33.45
2023-03-16T16:33:20.595Z,33.61
2023-03-16T16:35:27.494Z,33.71
2023-03-16T16:37:30.958Z,33.97
2023-03-16T16:39:34.234Z,33.81
2023-03-16T16:41:38.771Z,34.15
2023-03-16T16:43:44.312Z,34.19
2023-03-16T16:45:48.062Z,34.08
2023-03-16T16:47:53.224Z,34.10
2023-03-16T16:49:57.757Z,34.28
2023-03-16T16:52:02.517Z,34.20
2023-03-16T16:54:15.800Z,34.44
2023-03-16T16:56:26.387Z,34.59
2023-03-16T16:58:29.992Z,34.91
2023-03-16T17:00:33.382Z,35.05
2023-03-16T17:02:44.778Z,35.05
2023-03-16T17:04:50.606Z,35.37
2023-03-16T17:06:57.291Z,35.43
2023-03-16T17:09:01.947Z,35.53
2023-03-16T17:11:05.752Z,35.70
2023-03-16T17:13:25.750Z,35.72
2023-03-16T17:15:31.289Z,35.59
2023-03-16T17:17:34.904Z,35.82
2023-03-16T17:19:38.359Z,36.01
2023-03-16T17:21:42.009Z,36.02
2023-03-16T17:23:45.414Z,36.11
2023-03-16T17:25:50.572Z,36.00
2023-03-16T17:27:55.999Z,36.29
2023-03-16T17:29:59.813Z,36.05
2023-03-16T17:32:06.041Z,36.30
2023-03-16T17:34:17.276Z,36.54
2023-03-16T17:36:21.826Z,36.56
2023-03-16T17:38:26.426Z,36.67
2023-03-16T17:40:30.052Z,36.75
2023-03-16T17:42:34.861Z,36.52
2023-03-16T17:44:41.560Z,36.63
2023-03-16T17:46:44.899Z,36.76
2023-03-16T17:48:48.676Z,36.84
2023-03-16T17:50:52.619Z,37.31
2023-03-16T17:52:56.503Z,37.23
2023-03-16T17:54:59.739Z,37.12
2023-03-16T17:57:03.042Z,37.25
2023-03-16T17:59:14.209Z,37.61
2023-03-16T18:01:17.530Z,37.58
2023-03-16T18:03:21.743Z,37.56
2023-03-16T18:05:27.842Z,37.69
2023-03-16T18:07:31.123Z,37.92
2023-03-16T18:09:34.425Z,38.08
2023-03-16T18:11:41.365Z,38.29
2023-03-16T18:13:44.934Z,38.46
2023-03-16T18:15:50.751Z,38.67
2023-03-16T18:17:54.781Z,38.91
2023-03-16T18:19:58.173Z,38.87
2023-03-16T18:22:01.456Z,39.10
2023-03-16T18:24:06.960Z,39.43
2023-03-16T18:26:11.531Z,39.60
2023-03-16T18:28:15.972Z,40.07
2023-03-16T18:30:19.795Z,40.16
2023-03-16T18:32:26.283Z,40.35
2023-03-16T18:34:34.916Z,40.80
2023-03-16T18:36:39.765Z,41.08
2023-03-16T18:38:45.342Z,41.43
2023-03-16T18:40:49.347Z,41.74
2023-03-16T18:42:54.361Z,42.01
2023-03-16T18:44:57.644Z,42.17
2023-03-16T18:47:04.135Z,42.84
2023-03-16T18:49:16.766Z,43.00
2023-03-16T18:51:20.584Z,43.33
2023-03-16T18:53:24.403Z,43.32
2023-03-16T18:55:28.829Z,43.42
2023-03-16T18:57:33.358Z,43.74
2023-03-16T19:00:02.835Z,43.95
2023-03-16T19:02:17.740Z,44.18
2023-03-16T19:04:25.709Z,44.16
2023-03-16T19:06:31.667Z,44.12
2023-03-16T19:08:35.227Z,44.31
2023-03-16T19:10:42.786Z,44.38
2023-03-16T19:12:46.100Z,44.65
2023-03-16T19:14:49.625Z,44.42
2023-03-16T19:16:53.838Z,44.59
2023-03-16T19:18:57.106Z,44.75
2023-03-16T19:21:02.243Z,45.25
2023-03-16T19:23:08.486Z,45.34
2023-03-16T19:25:19.010Z,45.36
2023-03-16T19:27:25.605Z,45.64
2023-03-16T19:29:32.329Z,45.79
2023-03-16T19:31:35.628Z,45.75
2023-03-16T19:33:38.971Z,45.67
2023-03-16T19:35:51.499Z,45.64
2023-03-16T19:37:56.955Z,45.79
2023-03-16T19:40:00.456Z,45.83
2023-03-16T19:42:03.747Z,45.86
2023-03-16T19:44:09.896Z,46.13
2023-03-16T19:46:16.490Z,46.37
2023-03-16T19:48:22.848Z,46.54
2023-03-16T19:50:28.331Z,46.46
2023-03-16T19:52:32.794Z,46.64
2023-03-16T19:54:39.499Z,46.81
2023-03-16T19:56:42.758Z,46.91
2023-03-16T19:58:48.386Z,46.89
2023-03-16T20:00:51.977Z,46.96
2023-03-16T20:02:56.557Z,47.19
2023-03-16T20:04:59.877Z,47.34
2023-03-16T20:07:03.538Z,47.44
2023-03-16T20:09:06.820Z,47.42
2023-03-16T20:11:19.239Z,47.70
2023-03-16T20:13:23.471Z,47.59
2023-03-16T20:15:31.692Z,47.54
2023-03-16T20:17:35.680Z,47.78
2023-03-16T20:19:39.468Z,47.89
2023-03-16T20:21:43.295Z,48.05
2023-03-16T20:23:47.081Z,47.98
2023-03-16T20:25:52.084Z,47.86
2023-03-16T20:28:01.228Z,47.82
2023-03-16T20:30:05.625Z,48.02
2023-03-16T20:32:18.253Z,48.21
2023-03-16T20:34:24.305Z,48.08
2023-03-16T20:36:28.073Z,47.96
2023-03-16T20:38:31.501Z,48.32
2023-03-16T20:40:34.810Z,48.47
2023-03-16T20:42:38.559Z,48.57
2023-03-16T20:44:44.606Z,48.56
2023-03-16T20:46:48.875Z,48.63
2023-03-16T20:48:52.384Z,48.73
2023-03-16T20:50:57.337Z,48.71
2023-03-16T20:53:00.560Z,48.83
2023-03-16T20:55:05.549Z,49.00
2023-03-16T20:57:17.384Z,48.93
2023-03-16T20:59:24.814Z,48.93
2023-03-16T21:01:30.429Z,49.03
2023-03-16T21:03:34.824Z,48.99
2023-03-16T21:05:38.865Z,49.14
2023-03-16T21:07:42.155Z,49.36
2023-03-16T21:09:50.192Z,49.45
2023-03-16T21:11:54.196Z,49.50
2023-03-16T21:13:58.239Z,49.63
2023-03-16T21:16:03.776Z,49.60
2023-03-16T21:18:16.968Z,49.67
2023-03-16T21:20:22.487Z,49.89
2023-03-16T21:22:27.566Z,49.84
2023-03-16T21:24:30.765Z,50.03
2023-03-16T21:26:34.409Z,50.04
2023-03-16T21:28:37.798Z,50.03
2023-03-16T21:30:44.480Z,50.02
2023-03-16T21:32:47.910Z,50.21
2023-03-16T21:34:52.855Z,50.42
2023-03-16T21:36:56.068Z,50.35
2023-03-16T21:38:59.360Z,50.43
2023-03-16T21:41:02.676Z,50.45
2023-03-16T21:43:05.911Z,50.36
2023-03-16T21:45:10.822Z,50.44
2023-03-16T21:47:24.437Z,50.50
2023-03-16T21:49:27.831Z,50.28
2023-03-16T21:51:32.516Z,50.61
2023-03-16T21:53:36.357Z,50.80
2023-03-16T21:55:39.569Z,50.59
2023-03-16T21:57:42.853Z,50.82
2023-03-16T21:59:46.571Z,50.84
2023-03-16T22:02:01.130Z,50.85
2023-03-16T22:04:08.761Z,50.87
2023-03-16T22:06:13.606Z,50.75
2023-03-16T22:08:23.583Z,50.83
2023-03-16T22:10:28.442Z,50.82
2023-03-16T22:12:31.797Z,50.77
2023-03-16T22:14:35.096Z,50.92
2023-03-16T22:16:39.409Z,50.88
2023-03-16T22:18:42.940Z,50.76
2023-03-16T22:20:46.528Z,50.90
2023-03-16T22:22:50.335Z,50.81
2023-03-16T22:24:54.919Z,50.95
2023-03-16T22:26:58.424Z,50.78
2023-03-16T22:29:02.108Z,50.94
2023-03-16T22:31:06.434Z,50.95
2023-03-16T22:33:17.354Z,50.88
2023-03-16T22:35:36.720Z,51.29
2023-03-16T22:37:40.014Z,51.00
2023-03-16T22:39:43.870Z,51.08
2023-03-16T22:41:48.600Z,51.04
2023-03-16T22:43:51.924Z,51.18
2023-03-16T22:45:56.900Z,51.23
2023-03-16T22:48:03.346Z,51.12
2023-03-16T22:50:07.412Z,51.09
2023-03-16T22:52:12.499Z,51.08
2023-03-16T22:54:19.487Z,51.25
2023-03-16T22:56:24.373Z,51.11
2023-03-16T22:58:33.723Z,51.39
2023-03-16T23:00:38.126Z,51.01
2023-03-16T23:02:41.813Z,51.03
2023-03-16T23:04:45.840Z,51.17
2023-03-16T23:06:51.476Z,51.19
2023-03-16T23:08:55.633Z,51.26
2023-03-16T23:10:58.874Z,51.21
2023-03-16T23:13:02.125Z,51.35
2023-03-16T23:15:16.369Z,51.52
2023-03-16T23:17:22.260Z,51.38
2023-03-16T23:19:29.810Z,51.49
2023-03-16T23:21:33.248Z,51.63
2023-03-16T23:23:36.630Z,51.80
2023-03-16T23:25:40.323Z,51.58
2023-03-16T23:27:44.105Z,51.58
2023-03-16T23:29:47.758Z,51.82
2023-03-16T23:31:53.628Z,51.60
2023-03-16T23:33:57.010Z,51.52
2023-03-16T23:36:00.367Z,51.52
2023-03-16T23:38:03.607Z,52.03
2023-03-16T23:40:07.629Z,51.79
2023-03-16T23:42:11.547Z,51.79
2023-03-16T23:44:18.403Z,51.81
2023-03-16T23:46:23.819Z,51.99
2023-03-16T23:48:28.636Z,51.97
2023-03-16T23:50:34.693Z,51.94
2023-03-16T23:52:37.965Z,52.18
2023-03-16T23:54:41.417Z,52.26
2023-03-16T23:56:44.709Z,52.12
2023-03-16T23:58:48.088Z,52.36
